sensor_id;sensor_type;location;lat;lon;timestamp;P1;durP1;ratioP1;P2;durP2;ratioP2
37485;SDS011;23341;50.296;18.960;2022-07-06T00:03:05;53.25;;;35.65;;
37485;SDS011;23341;50.296;18.960;2022-07-06T00:08:09;47.55;;;35.17;;
37485;SDS011;23341;50.296;18.960;2022-07-06T00:13:14;48.35;;;33.95;;
37485;SDS011;23341;50.296;18.960;2022-07-06T00:18:18;43.83;;;32.63;;
37485;SDS011;23341;50.296;18.960;2022-07-06T00:23:22;47.65;;;33.42;;
37485;SDS011;23341;50.296;18.960;2022-07-06T00:28:27;49.13;;;34.58;;
37485;SDS011;23341;50.296;18.960;2022-07-06T00:33:31;51.90;;;34.58;;
37485;SDS011;23341;50.296;18.960;2022-07-06T00:38:35;50.65;;;35.10;;
37485;SDS011;23341;50.296;18.960;2022-07-06T00:43:50;53.03;;;36.22;;
37485;SDS011;23341;50.296;18.960;2022-07-06T00:48:54;50.20;;;36.00;;
37485;SDS011;23341;50.296;18.960;2022-07-06T00:53:58;46.88;;;36.47;;
37485;SDS011;23341;50.296;18.960;2022-07-06T00:59:05;49.45;;;37.10;;
37485;SDS011;23341;50.296;18.960;2022-07-06T01:04:09;48.17;;;40.33;;
37485;SDS011;23341;50.296;18.960;2022-07-06T01:09:12;52.88;;;41.38;;
37485;SDS011;23341;50.296;18.960;2022-07-06T01:14:17;50.67;;;38.35;;
37485;SDS011;23341;50.296;18.960;2022-07-06T01:19:21;47.63;;;40.15;;
37485;SDS011;23341;50.296;18.960;2022-07-06T01:24:26;45.80;;;34.97;;
37485;SDS011;23341;50.296;18.960;2022-07-06T01:29:30;37.85;;;32.65;;
37485;SDS011;23341;50.296;18.960;2022-07-06T01:34:34;42.33;;;31.38;;
37485;SDS011;23341;50.296;18.960;2022-07-06T01:39:39;38.95;;;31.75;;
37485;SDS011;23341;50.296;18.960;2022-07-06T01:44:42;34.10;;;30.33;;
37485;SDS011;23341;50.296;18.960;2022-07-06T01:49:46;37.08;;;29.92;;
37485;SDS011;23341;50.296;18.960;2022-07-06T01:54:51;37.00;;;28.08;;
37485;SDS011;23341;50.296;18.960;2022-07-06T01:59:55;34.30;;;28.80;;
37485;SDS011;23341;50.296;18.960;2022-07-06T02:04:58;39.90;;;29.80;;
37485;SDS011;23341;50.296;18.960;2022-07-06T02:10:04;41.17;;;30.48;;
37485;SDS011;23341;50.296;18.960;2022-07-06T02:15:08;36.05;;;28.08;;
37485;SDS011;23341;50.296;18.960;2022-07-06T02:20:13;35.72;;;28.83;;
37485;SDS011;23341;50.296;18.960;2022-07-06T02:25:20;30.73;;;27.52;;
37485;SDS011;23341;50.296;18.960;2022-07-06T02:30:24;29.42;;;26.60;;
37485;SDS011;23341;50.296;18.960;2022-07-06T02:35:27;29.10;;;26.08;;
37485;SDS011;23341;50.296;18.960;2022-07-06T02:40:33;31.70;;;27.58;;
37485;SDS011;23341;50.296;18.960;2022-07-06T02:45:36;33.05;;;29.73;;
37485;SDS011;23341;50.296;18.960;2022-07-06T02:50:40;39.92;;;32.38;;
37485;SDS011;23341;50.296;18.960;2022-07-06T02:55:45;36.08;;;30.15;;
37485;SDS011;23341;50.296;18.960;2022-07-06T03:00:48;35.50;;;30.30;;
37485;SDS011;23341;50.296;18.960;2022-07-06T03:05:53;32.83;;;28.88;;
37485;SDS011;23341;50.296;18.960;2022-07-06T03:16:39;37.50;;;28.70;;
37485;SDS011;23341;50.296;18.960;2022-07-06T03:21:47;44.17;;;31.73;;
37485;SDS011;23341;50.296;18.960;2022-07-06T03:26:51;32.28;;;28.77;;
37485;SDS011;23341;50.296;18.960;2022-07-06T03:31:56;35.13;;;27.92;;
37485;SDS011;23341;50.296;18.960;2022-07-06T03:37:00;30.58;;;27.27;;
37485;SDS011;23341;50.296;18.960;2022-07-06T03:42:04;35.78;;;29.30;;
37485;SDS011;23341;50.296;18.960;2022-07-06T03:47:10;34.83;;;28.77;;
37485;SDS011;23341;50.296;18.960;2022-07-06T03:52:14;35.42;;;29.23;;
37485;SDS011;23341;50.296;18.960;2022-07-06T03:57:24;34.08;;;28.42;;
37485;SDS011;23341;50.296;18.960;2022-07-06T04:02:32;31.83;;;27.30;;
37485;SDS011;23341;50.296;18.960;2022-07-06T04:07:36;43.92;;;39.25;;
37485;SDS011;23341;50.296;18.960;2022-07-06T04:12:40;49.72;;;35.28;;
37485;SDS011;23341;50.296;18.960;2022-07-06T04:17:45;34.70;;;28.15;;
37485;SDS011;23341;50.296;18.960;2022-07-06T04:23:02;30.90;;;24.90;;
37485;SDS011;23341;50.296;18.960;2022-07-06T04:28:06;32.45;;;27.88;;
37485;SDS011;23341;50.296;18.960;2022-07-06T04:33:12;31.13;;;27.90;;
37485;SDS011;23341;50.296;18.960;2022-07-06T04:38:18;33.42;;;29.90;;
37485;SDS011;23341;50.296;18.960;2022-07-06T04:43:24;41.08;;;32.83;;
37485;SDS011;23341;50.296;18.960;2022-07-06T04:48:29;44.80;;;35.42;;
37485;SDS011;23341;50.296;18.960;2022-07-06T04:53:34;47.13;;;35.67;;
37485;SDS011;23341;50.296;18.960;2022-07-06T04:58:39;45.42;;;33.25;;
37485;SDS011;23341;50.296;18.960;2022-07-06T05:03:47;42.33;;;33.78;;
37485;SDS011;23341;50.296;18.960;2022-07-06T05:08:53;44.45;;;32.03;;
37485;SDS011;23341;50.296;18.960;2022-07-06T05:13:59;41.30;;;31.00;;
37485;SDS011;23341;50.296;18.960;2022-07-06T05:19:03;37.08;;;29.63;;
37485;SDS011;23341;50.296;18.960;2022-07-06T05:24:08;53.03;;;31.77;;
37485;SDS011;23341;50.296;18.960;2022-07-06T05:59:01;47.92;;;38.15;;
37485;SDS011;23341;50.296;18.960;2022-07-06T06:04:06;55.83;;;40.35;;
37485;SDS011;23341;50.296;18.960;2022-07-06T06:09:10;40.63;;;33.42;;
37485;SDS011;23341;50.296;18.960;2022-07-06T06:14:14;28.30;;;25.02;;
37485;SDS011;23341;50.296;18.960;2022-07-06T06:19:18;30.15;;;24.73;;
37485;SDS011;23341;50.296;18.960;2022-07-06T06:24:21;32.10;;;28.30;;
37485;SDS011;23341;50.296;18.960;2022-07-06T06:29:28;41.85;;;33.10;;
37485;SDS011;23341;50.296;18.960;2022-07-06T06:34:33;36.85;;;29.35;;
37485;SDS011;23341;50.296;18.960;2022-07-06T06:39:36;24.75;;;20.85;;
37485;SDS011;23341;50.296;18.960;2022-07-06T06:44:41;22.33;;;20.00;;
37485;SDS011;23341;50.296;18.960;2022-07-06T06:49:44;23.10;;;21.05;;
37485;SDS011;23341;50.296;18.960;2022-07-06T06:54:48;19.15;;;17.25;;
37485;SDS011;23341;50.296;18.960;2022-07-06T06:59:53;19.33;;;15.88;;
37485;SDS011;23341;50.296;18.960;2022-07-06T07:04:56;19.25;;;17.38;;
37485;SDS011;23341;50.296;18.960;2022-07-06T07:10:00;21.30;;;18.20;;
37485;SDS011;23341;50.296;18.960;2022-07-06T07:15:07;19.25;;;16.45;;
37485;SDS011;23341;50.296;18.960;2022-07-06T07:20:11;16.13;;;13.18;;
37485;SDS011;23341;50.296;18.960;2022-07-06T07:25:15;13.05;;;11.75;;
37485;SDS011;23341;50.296;18.960;2022-07-06T07:30:19;18.63;;;14.82;;
37485;SDS011;23341;50.296;18.960;2022-07-06T07:35:23;19.95;;;14.45;;
37485;SDS011;23341;50.296;18.960;2022-07-06T07:40:26;21.50;;;17.67;;
37485;SDS011;23341;50.296;18.960;2022-07-06T07:45:31;16.98;;;15.52;;
37485;SDS011;23341;50.296;18.960;2022-07-06T07:50:35;16.90;;;15.32;;
37485;SDS011;23341;50.296;18.960;2022-07-06T07:55:38;12.18;;;11.10;;
37485;SDS011;23341;50.296;18.960;2022-07-06T08:00:45;15.80;;;9.85;;
37485;SDS011;23341;50.296;18.960;2022-07-06T08:05:49;8.98;;;7.28;;
37485;SDS011;23341;50.296;18.960;2022-07-06T08:10:52;5.88;;;5.47;;
37485;SDS011;23341;50.296;18.960;2022-07-06T08:16:17;6.88;;;5.40;;
37485;SDS011;23341;50.296;18.960;2022-07-06T08:21:21;8.75;;;4.72;;
37485;SDS011;23341;50.296;18.960;2022-07-06T08:26:27;8.50;;;4.68;;
37485;SDS011;23341;50.296;18.960;2022-07-06T08:31:33;7.28;;;5.78;;
37485;SDS011;23341;50.296;18.960;2022-07-06T08:36:57;4.40;;;3.95;;
37485;SDS011;23341;50.296;18.960;2022-07-06T08:42:00;6.00;;;3.53;;
37485;SDS011;23341;50.296;18.960;2022-07-06T08:47:06;3.90;;;2.72;;
37485;SDS011;23341;50.296;18.960;2022-07-06T08:52:15;4.63;;;2.30;;
37485;SDS011;23341;50.296;18.960;2022-07-06T08:57:19;2.35;;;2.08;;
37485;SDS011;23341;50.296;18.960;2022-07-06T09:02:24;2.53;;;1.80;;
37485;SDS011;23341;50.296;18.960;2022-07-06T09:07:29;2.75;;;1.83;;
37485;SDS011;23341;50.296;18.960;2022-07-06T09:12:53;3.55;;;2.17;;
37485;SDS011;23341;50.296;18.960;2022-07-06T09:18:06;3.70;;;2.08;;
37485;SDS011;23341;50.296;18.960;2022-07-06T09:23:10;1.90;;;1.77;;
37485;SDS011;23341;50.296;18.960;2022-07-06T09:28:19;3.13;;;2.08;;
37485;SDS011;23341;50.296;18.960;2022-07-06T09:33:24;3.83;;;3.28;;
37485;SDS011;23341;50.296;18.960;2022-07-06T09:38:28;5.97;;;2.90;;
37485;SDS011;23341;50.296;18.960;2022-07-06T09:43:33;5.82;;;2.47;;
37485;SDS011;23341;50.296;18.960;2022-07-06T09:48:40;2.33;;;2.13;;
37485;SDS011;23341;50.296;18.960;2022-07-06T09:53:44;2.42;;;1.80;;
37485;SDS011;23341;50.296;18.960;2022-07-06T09:58:55;2.20;;;2.00;;
37485;SDS011;23341;50.296;18.960;2022-07-06T10:04:06;2.30;;;1.77;;
37485;SDS011;23341;50.296;18.960;2022-07-06T10:09:11;6.45;;;3.50;;
37485;SDS011;23341;50.296;18.960;2022-07-06T10:14:18;7.30;;;5.25;;
37485;SDS011;23341;50.296;18.960;2022-07-06T10:19:26;6.30;;;4.88;;
37485;SDS011;23341;50.296;18.960;2022-07-06T10:24:31;4.28;;;3.42;;
37485;SDS011;23341;50.296;18.960;2022-07-06T10:29:36;4.22;;;3.03;;
37485;SDS011;23341;50.296;18.960;2022-07-06T10:34:41;1.88;;;1.70;;
37485;SDS011;23341;50.296;18.960;2022-07-06T10:39:44;1.60;;;1.50;;
37485;SDS011;23341;50.296;18.960;2022-07-06T10:45:09;2.03;;;1.80;;
37485;SDS011;23341;50.296;18.960;2022-07-06T10:50:15;2.65;;;1.50;;
37485;SDS011;23341;50.296;18.960;2022-07-06T10:55:28;3.65;;;1.63;;
37485;SDS011;23341;50.296;18.960;2022-07-06T11:06:06;1.30;;;1.10;;
37485;SDS011;23341;50.296;18.960;2022-07-06T11:11:13;2.13;;;1.50;;
37485;SDS011;23341;50.296;18.960;2022-07-06T11:16:19;8.75;;;2.00;;
37485;SDS011;23341;50.296;18.960;2022-07-06T11:21:33;5.78;;;1.80;;
37485;SDS011;23341;50.296;18.960;2022-07-06T11:26:38;3.58;;;1.58;;
37485;SDS011;23341;50.296;18.960;2022-07-06T11:31:44;2.35;;;1.70;;
37485;SDS011;23341;50.296;18.960;2022-07-06T11:36:53;4.63;;;2.10;;
37485;SDS011;23341;50.296;18.960;2022-07-06T11:41:58;2.80;;;1.77;;
37485;SDS011;23341;50.296;18.960;2022-07-06T11:47:04;4.10;;;2.00;;
37485;SDS011;23341;50.296;18.960;2022-07-06T11:52:10;1.67;;;1.58;;
37485;SDS011;23341;50.296;18.960;2022-07-06T11:57:15;3.25;;;2.17;;
37485;SDS011;23341;50.296;18.960;2022-07-06T12:02:19;3.05;;;1.70;;
37485;SDS011;23341;50.296;18.960;2022-07-06T12:07:24;4.13;;;1.90;;
37485;SDS011;23341;50.296;18.960;2022-07-06T12:12:28;2.20;;;1.90;;
37485;SDS011;23341;50.296;18.960;2022-07-06T12:17:33;2.58;;;2.20;;
37485;SDS011;23341;50.296;18.960;2022-07-06T12:22:40;4.28;;;1.65;;
37485;SDS011;23341;50.296;18.960;2022-07-06T12:27:43;2.55;;;1.80;;
37485;SDS011;23341;50.296;18.960;2022-07-06T12:32:47;3.90;;;1.70;;
37485;SDS011;23341;50.296;18.960;2022-07-06T12:38:22;2.55;;;1.40;;
37485;SDS011;23341;50.296;18.960;2022-07-06T12:43:35;3.08;;;1.80;;
37485;SDS011;23341;50.296;18.960;2022-07-06T12:48:50;2.42;;;2.22;;
37485;SDS011;23341;50.296;18.960;2022-07-06T12:59:20;3.05;;;2.67;;
37485;SDS011;23341;50.296;18.960;2022-07-06T13:04:26;2.25;;;1.65;;
37485;SDS011;23341;50.296;18.960;2022-07-06T13:09:32;2.70;;;1.77;;
37485;SDS011;23341;50.296;18.960;2022-07-06T13:14:36;2.58;;;2.17;;
37485;SDS011;23341;50.296;18.960;2022-07-06T13:19:39;1.50;;;1.40;;
37485;SDS011;23341;50.296;18.960;2022-07-06T13:24:44;1.67;;;1.35;;
37485;SDS011;23341;50.296;18.960;2022-07-06T13:29:48;2.22;;;1.70;;
37485;SDS011;23341;50.296;18.960;2022-07-06T13:34:51;3.28;;;2.05;;
37485;SDS011;23341;50.296;18.960;2022-07-06T13:39:56;4.25;;;2.40;;
37485;SDS011;23341;50.296;18.960;2022-07-06T13:45:00;2.53;;;1.50;;
37485;SDS011;23341;50.296;18.960;2022-07-06T13:50:03;3.53;;;2.15;;
37485;SDS011;23341;50.296;18.960;2022-07-06T13:55:09;1.65;;;1.50;;
37485;SDS011;23341;50.296;18.960;2022-07-06T14:00:13;3.10;;;1.58;;
37485;SDS011;23341;50.296;18.960;2022-07-06T14:05:20;2.35;;;1.40;;
37485;SDS011;23341;50.296;18.960;2022-07-06T14:10:25;2.03;;;1.40;;
37485;SDS011;23341;50.296;18.960;2022-07-06T14:15:28;1.92;;;1.50;;
37485;SDS011;23341;50.296;18.960;2022-07-06T14:20:32;1.60;;;1.50;;
37485;SDS011;23341;50.296;18.960;2022-07-06T14:25:36;2.85;;;1.60;;
37485;SDS011;23341;50.296;18.960;2022-07-06T15:28:59;4.45;;;1.52;;
37485;SDS011;23341;50.296;18.960;2022-07-06T15:34:03;7.10;;;1.98;;
37485;SDS011;23341;50.296;18.960;2022-07-06T15:39:07;2.33;;;1.85;;
37485;SDS011;23341;50.296;18.960;2022-07-06T15:44:11;2.22;;;1.52;;
37485;SDS011;23341;50.296;18.960;2022-07-06T15:49:15;8.40;;;1.98;;
37485;SDS011;23341;50.296;18.960;2022-07-06T15:54:19;6.30;;;1.95;;
37485;SDS011;23341;50.296;18.960;2022-07-06T15:59:24;2.45;;;1.40;;
37485;SDS011;23341;50.296;18.960;2022-07-06T16:04:29;1.77;;;1.20;;
37485;SDS011;23341;50.296;18.960;2022-07-06T16:09:33;2.88;;;1.52;;
37485;SDS011;23341;50.296;18.960;2022-07-06T16:14:37;2.83;;;1.20;;
37485;SDS011;23341;50.296;18.960;2022-07-06T16:19:41;2.60;;;1.35;;
37485;SDS011;23341;50.296;18.960;2022-07-06T16:24:45;4.82;;;1.58;;
37485;SDS011;23341;50.296;18.960;2022-07-06T16:29:50;1.63;;;1.30;;
37485;SDS011;23341;50.296;18.960;2022-07-06T16:34:54;1.92;;;1.48;;
37485;SDS011;23341;50.296;18.960;2022-07-06T16:39:57;2.15;;;1.27;;
37485;SDS011;23341;50.296;18.960;2022-07-06T16:45:02;3.08;;;1.50;;
37485;SDS011;23341;50.296;18.960;2022-07-06T16:50:06;1.65;;;1.15;;
37485;SDS011;23341;50.296;18.960;2022-07-06T16:55:10;3.97;;;1.40;;
37485;SDS011;23341;50.296;18.960;2022-07-06T17:00:15;2.80;;;1.60;;
37485;SDS011;23341;50.296;18.960;2022-07-06T17:05:19;2.03;;;1.50;;
37485;SDS011;23341;50.296;18.960;2022-07-06T17:10:22;1.88;;;1.63;;
37485;SDS011;23341;50.296;18.960;2022-07-06T17:15:27;6.10;;;1.88;;
37485;SDS011;23341;50.296;18.960;2022-07-06T17:20:31;3.15;;;2.47;;
37485;SDS011;23341;50.296;18.960;2022-07-06T17:25:34;2.17;;;1.90;;
37485;SDS011;23341;50.296;18.960;2022-07-06T17:30:39;1.65;;;1.48;;
37485;SDS011;23341;50.296;18.960;2022-07-06T17:35:44;2.03;;;1.50;;
37485;SDS011;23341;50.296;18.960;2022-07-06T17:40:48;3.75;;;1.42;;
37485;SDS011;23341;50.296;18.960;2022-07-06T17:45:52;2.65;;;1.90;;
37485;SDS011;23341;50.296;18.960;2022-07-06T17:50:56;3.33;;;2.10;;
37485;SDS011;23341;50.296;18.960;2022-07-06T17:55:59;6.63;;;3.67;;
37485;SDS011;23341;50.296;18.960;2022-07-06T18:01:04;6.75;;;2.15;;
37485;SDS011;23341;50.296;18.960;2022-07-06T18:06:08;4.72;;;2.80;;
37485;SDS011;23341;50.296;18.960;2022-07-06T18:11:11;7.00;;;3.05;;
37485;SDS011;23341;50.296;18.960;2022-07-06T18:16:16;4.38;;;2.67;;
37485;SDS011;23341;50.296;18.960;2022-07-06T18:21:19;5.32;;;2.30;;
37485;SDS011;23341;50.296;18.960;2022-07-06T18:26:23;5.90;;;3.38;;
37485;SDS011;23341;50.296;18.960;2022-07-06T18:31:28;3.22;;;2.40;;
37485;SDS011;23341;50.296;18.960;2022-07-06T18:36:31;9.75;;;2.55;;
37485;SDS011;23341;50.296;18.960;2022-07-06T18:41:37;5.50;;;2.80;;
37485;SDS011;23341;50.296;18.960;2022-07-06T18:46:41;5.78;;;2.85;;
37485;SDS011;23341;50.296;18.960;2022-07-06T18:51:45;6.43;;;3.08;;
37485;SDS011;23341;50.296;18.960;2022-07-06T18:56:48;5.00;;;2.83;;
37485;SDS011;23341;50.296;18.960;2022-07-06T19:01:53;4.25;;;2.78;;
37485;SDS011;23341;50.296;18.960;2022-07-06T19:06:56;3.30;;;2.25;;
37485;SDS011;23341;50.296;18.960;2022-07-06T19:12:00;3.53;;;2.08;;
37485;SDS011;23341;50.296;18.960;2022-07-06T19:17:04;4.68;;;2.75;;
37485;SDS011;23341;50.296;18.960;2022-07-06T19:22:08;6.90;;;2.60;;
37485;SDS011;23341;50.296;18.960;2022-07-06T19:27:11;4.80;;;2.88;;
37485;SDS011;23341;50.296;18.960;2022-07-06T19:32:16;4.93;;;2.97;;
37485;SDS011;23341;50.296;18.960;2022-07-06T19:37:20;5.40;;;3.08;;
37485;SDS011;23341;50.296;18.960;2022-07-06T19:42:23;5.00;;;2.30;;
37485;SDS011;23341;50.296;18.960;2022-07-06T19:47:28;6.18;;;2.88;;
37485;SDS011;23341;50.296;18.960;2022-07-06T19:52:31;2.45;;;2.22;;
37485;SDS011;23341;50.296;18.960;2022-07-06T19:57:35;8.77;;;3.38;;
37485;SDS011;23341;50.296;18.960;2022-07-06T20:02:39;3.05;;;2.45;;
37485;SDS011;23341;50.296;18.960;2022-07-06T20:07:43;3.92;;;2.75;;
37485;SDS011;23341;50.296;18.960;2022-07-06T20:12:46;3.38;;;2.58;;
37485;SDS011;23341;50.296;18.960;2022-07-06T20:17:51;1.95;;;1.85;;
37485;SDS011;23341;50.296;18.960;2022-07-06T20:22:55;2.28;;;2.08;;
37485;SDS011;23341;50.296;18.960;2022-07-06T20:27:58;4.82;;;2.63;;
37485;SDS011;23341;50.296;18.960;2022-07-06T20:33:03;6.95;;;3.58;;
37485;SDS011;23341;50.296;18.960;2022-07-06T20:38:06;7.30;;;4.00;;
37485;SDS011;23341;50.296;18.960;2022-07-06T20:43:10;2.83;;;2.60;;
37485;SDS011;23341;50.296;18.960;2022-07-06T20:48:25;2.50;;;2.30;;
37485;SDS011;23341;50.296;18.960;2022-07-06T20:53:28;4.28;;;2.88;;
37485;SDS011;23341;50.296;18.960;2022-07-06T20:58:32;2.60;;;2.35;;
37485;SDS011;23341;50.296;18.960;2022-07-06T21:03:57;4.13;;;2.10;;
37485;SDS011;23341;50.296;18.960;2022-07-06T21:09:02;2.67;;;2.20;;
37485;SDS011;23341;50.296;18.960;2022-07-06T21:14:05;2.95;;;2.67;;
37485;SDS011;23341;50.296;18.960;2022-07-06T21:19:10;6.13;;;2.28;;
37485;SDS011;23341;50.296;18.960;2022-07-06T21:24:14;4.55;;;2.42;;
37485;SDS011;23341;50.296;18.960;2022-07-06T21:29:17;3.30;;;2.97;;
37485;SDS011;23341;50.296;18.960;2022-07-06T21:34:22;5.57;;;3.10;;
37485;SDS011;23341;50.296;18.960;2022-07-06T21:39:25;4.25;;;3.40;;
37485;SDS011;23341;50.296;18.960;2022-07-06T21:44:29;6.82;;;3.38;;
37485;SDS011;23341;50.296;18.960;2022-07-06T21:49:34;7.32;;;4.03;;
37485;SDS011;23341;50.296;18.960;2022-07-06T21:54:38;7.88;;;5.07;;
37485;SDS011;23341;50.296;18.960;2022-07-06T21:59:42;4.72;;;4.22;;
37485;SDS011;23341;50.296;18.960;2022-07-06T22:04:47;11.45;;;5.72;;
37485;SDS011;23341;50.296;18.960;2022-07-06T22:09:51;5.63;;;4.38;;
37485;SDS011;23341;50.296;18.960;2022-07-06T22:14:54;5.97;;;4.75;;
37485;SDS011;23341;50.296;18.960;2022-07-06T22:19:59;5.20;;;4.30;;
37485;SDS011;23341;50.296;18.960;2022-07-06T22:25:03;6.28;;;4.50;;
37485;SDS011;23341;50.296;18.960;2022-07-06T22:30:08;12.52;;;5.35;;
37485;SDS011;23341;50.296;18.960;2022-07-06T22:35:14;8.05;;;4.80;;
37485;SDS011;23341;50.296;18.960;2022-07-06T22:40:17;5.90;;;4.65;;
37485;SDS011;23341;50.296;18.960;2022-07-06T22:45:38;5.53;;;4.38;;
37485;SDS011;23341;50.296;18.960;2022-07-06T22:50:43;12.02;;;5.32;;
37485;SDS011;23341;50.296;18.960;2022-07-06T22:55:46;5.47;;;4.93;;
37485;SDS011;23341;50.296;18.960;2022-07-06T23:00:50;6.30;;;5.07;;
37485;SDS011;23341;50.296;18.960;2022-07-06T23:05:54;6.22;;;4.80;;
37485;SDS011;23341;50.296;18.960;2022-07-06T23:10:58;6.57;;;5.32;;
37485;SDS011;23341;50.296;18.960;2022-07-06T23:16:01;5.95;;;4.93;;
37485;SDS011;23341;50.296;18.960;2022-07-06T23:21:08;6.05;;;5.35;;
37485;SDS011;23341;50.296;18.960;2022-07-06T23:26:12;7.95;;;5.03;;
37485;SDS011;23341;50.296;18.960;2022-07-06T23:31:15;7.47;;;5.53;;
37485;SDS011;23341;50.296;18.960;2022-07-06T23:36:20;7.68;;;6.43;;
37485;SDS011;23341;50.296;18.960;2022-07-06T23:41:24;10.23;;;7.55;;
37485;SDS011;23341;50.296;18.960;2022-07-06T23:46:28;10.77;;;6.32;;
37485;SDS011;23341;50.296;18.960;2022-07-06T23:51:33;10.60;;;9.57;;
37485;SDS011;23341;50.296;18.960;2022-07-06T23:56:36;9.98;;;8.65;;
